Time;durP1;ratioP1;P1;durP2;ratioP2;P2;SDS_P1;SDS_P2;PMS_P1;PMS_P2;Temp;Humidity;BMP_temperature;BMP_pressure;BME280_temperature;BME280_humidity;BME280_pressure;Samples;Min_cycle;Max_cycle;Signal;HPM_P1;HPM_P2
2022/04/11 00:04:56;;;;;;;1.50;0.73;;;2.60;99.90;;;;;;10322149;28;20073;-87
2022/04/11 00:09:58;;;;;;;4.05;0.90;;;2.50;99.90;;;;;;10338306;28;20047;-87
2022/04/11 00:15:01;;;;;;;4.25;0.70;;;2.50;99.90;;;;;;10337356;28;20128;-87
2022/04/11 00:20:04;;;;;;;2.45;0.80;;;2.40;99.90;;;;;;10329041;28;20042;-86
2022/04/11 00:25:07;;;;;;;2.75;0.85;;;2.30;99.90;;;;;;10325890;28;20052;-87
2022/04/11 00:30:09;;;;;;;1.20;0.70;;;2.30;99.90;;;;;;10321241;28;20051;-87
2022/04/11 00:35:12;;;;;;;9.98;0.70;;;2.30;99.90;;;;;;10342439;28;20058;-88
2022/04/11 00:40:14;;;;;;;1.38;0.65;;;2.30;99.90;;;;;;10324592;28;20058;-87
2022/04/11 00:45:16;;;;;;;6.28;0.80;;;2.30;99.90;;;;;;10326102;28;20058;-86
2022/04/11 00:50:18;;;;;;;1.88;0.60;;;2.30;99.90;;;;;;10338009;28;20531;-86
2022/04/11 00:55:23;;;;;;;0.70;0.60;;;2.30;99.90;;;;;;10336740;28;20050;-86
2022/04/11 01:00:24;;;;;;;3.55;0.77;;;2.30;99.90;;;;;;10331852;28;20058;-87
2022/04/11 01:05:26;;;;;;;2.50;0.57;;;2.30;99.90;;;;;;10324141;28;20057;-87
2022/04/11 01:10:28;;;;;;;1.35;0.75;;;2.30;99.90;;;;;;10348969;28;20074;-87
2022/04/11 01:15:30;;;;;;;1.20;0.95;;;2.20;99.90;;;;;;10340282;28;20524;-87
2022/04/11 01:20:32;;;;;;;2.95;1.08;;;2.20;99.90;;;;;;10338853;28;20064;-86
2022/04/11 01:25:34;;;;;;;23.02;7.68;;;2.30;99.90;;;;;;10331937;28;20060;-87
2022/04/11 01:30:36;;;;;;;13.82;4.07;;;2.20;99.90;;;;;;10344406;28;20053;-87
2022/04/11 01:35:37;;;;;;;10.90;4.90;;;2.20;99.90;;;;;;10323212;28;20054;-86
2022/04/11 01:40:59;;;;;;;7.03;2.90;;;2.30;99.90;;;;;;10318467;28;20475;-87
2022/04/11 01:46:02;;;;;;;3.15;1.52;;;2.20;99.90;;;;;;10341943;28;20072;-87
2022/04/11 01:51:04;;;;;;;1.52;0.90;;;2.20;99.90;;;;;;10312669;28;20116;-88
2022/04/11 01:56:06;;;;;;;2.47;0.95;;;2.30;99.90;;;;;;10319500;28;20474;-87
2022/04/11 02:01:08;;;;;;;2.25;1.13;;;2.20;99.90;;;;;;10339635;28;20050;-86
2022/04/11 02:06:10;;;;;;;4.13;1.48;;;2.30;99.90;;;;;;10333703;28;20060;-87
2022/04/11 02:11:12;;;;;;;1.98;1.13;;;2.30;99.90;;;;;;10323060;28;20109;-87
2022/04/11 02:16:14;;;;;;;2.75;1.30;;;2.30;99.90;;;;;;10325186;28;20026;-87
2022/04/11 02:21:16;;;;;;;2.25;1.48;;;2.40;99.90;;;;;;10325570;28;20094;-87
2022/04/11 02:26:17;;;;;;;2.30;1.60;;;2.40;99.90;;;;;;10334627;28;20040;-87
2022/04/11 02:31:19;;;;;;;5.03;2.35;;;2.50;99.90;;;;;;10333251;28;20047;-87
2022/04/11 02:36:21;;;;;;;5.07;1.75;;;2.50;99.90;;;;;;10320246;28;20108;-87
2022/04/11 02:41:23;;;;;;;2.85;1.67;;;2.60;99.90;;;;;;10333364;28;20058;-87
2022/04/11 02:46:25;;;;;;;2.55;1.40;;;2.60;99.90;;;;;;10306988;28;20057;-87
2022/04/11 02:51:27;;;;;;;4.18;1.30;;;2.60;99.90;;;;;;10312731;28;20054;-87
2022/04/11 02:56:28;;;;;;;6.55;1.40;;;2.60;99.90;;;;;;10321264;28;20134;-87
2022/04/11 03:01:30;;;;;;;1.35;1.17;;;2.60;99.90;;;;;;10320274;28;20161;-87
2022/04/11 03:06:32;;;;;;;3.13;1.30;;;2.70;99.90;;;;;;10334013;28;20069;-86
2022/04/11 03:11:37;;;;;;;3.88;1.80;;;2.70;99.90;;;;;;10340341;28;20069;-87
2022/04/11 03:16:41;;;;;;;3.22;1.70;;;2.60;99.90;;;;;;10329915;28;20048;-87
2022/04/11 03:21:44;;;;;;;4.00;1.63;;;2.60;99.90;;;;;;10329587;28;20081;-87
2022/04/11 03:26:46;;;;;;;4.50;1.63;;;2.60;99.90;;;;;;10349309;28;20089;-87
2022/04/11 03:31:48;;;;;;;2.80;1.50;;;2.60;99.90;;;;;;10325341;28;20144;-88
2022/04/11 03:36:56;;;;;;;5.40;1.60;;;2.60;99.90;;;;;;10330090;28;20181;-87
2022/04/11 03:41:58;;;;;;;6.45;1.90;;;2.70;99.90;;;;;;10319896;28;20051;-87
2022/04/11 03:46:59;;;;;;;5.28;2.20;;;2.70;99.90;;;;;;10339979;28;20159;-87
2022/04/11 03:52:01;;;;;;;3.35;1.60;;;2.70;99.90;;;;;;10320223;28;20689;-87
2022/04/11 03:57:04;;;;;;;6.32;1.95;;;2.60;99.90;;;;;;10312089;28;20050;-87
2022/04/11 04:02:06;;;;;;;3.83;1.83;;;2.50;99.90;;;;;;10321846;28;20049;-87
2022/04/11 04:07:08;;;;;;;3.75;2.13;;;2.50;99.90;;;;;;10323794;28;20090;-86
2022/04/11 04:12:10;;;;;;;6.82;1.80;;;2.50;99.90;;;;;;10328960;28;20420;-87
2022/04/11 04:17:12;;;;;;;4.80;2.20;;;2.50;99.90;;;;;;10321710;28;20641;-88
2022/04/11 04:22:14;;;;;;;7.20;2.53;;;2.40;99.90;;;;;;10310470;28;20058;-87
2022/04/11 04:27:16;;;;;;;6.25;2.72;;;2.50;99.90;;;;;;10311699;28;20042;-88
2022/04/11 04:32:18;;;;;;;9.38;2.05;;;2.50;99.90;;;;;;10316183;28;20051;-87
2022/04/11 04:37:20;;;;;;;6.82;2.17;;;2.50;99.90;;;;;;10316575;28;20049;-87
2022/04/11 04:42:22;;;;;;;3.75;1.90;;;2.50;99.90;;;;;;10335887;28;20042;-88
2022/04/11 04:47:27;;;;;;;10.75;2.58;;;2.40;99.90;;;;;;10341502;28;20523;-88
2022/04/11 04:52:29;;;;;;;3.17;2.00;;;2.50;99.90;;;;;;10316987;28;20044;-88
2022/04/11 04:57:31;;;;;;;4.18;2.33;;;2.50;99.90;;;;;;10312767;28;20404;-87
2022/04/11 05:02:37;;;;;;;6.60;2.28;;;2.40;99.90;;;;;;10348610;28;20037;-88
2022/04/11 05:07:39;;;;;;;7.78;2.50;;;2.40;99.90;;;;;;10332620;28;20511;-87
2022/04/11 05:12:48;;;;;;;4.53;2.83;;;2.40;99.90;;;;;;10335361;28;20044;-87
2022/04/11 05:17:50;;;;;;;7.00;2.42;;;2.40;99.90;;;;;;10323506;28;20497;-88
2022/04/11 05:22:52;;;;;;;9.15;2.15;;;2.30;99.90;;;;;;10334933;28;20489;-87
2022/04/11 05:27:53;;;;;;;5.93;2.33;;;2.20;99.90;;;;;;10341075;28;20053;-88
2022/04/11 05:32:55;;;;;;;4.35;2.45;;;2.20;99.90;;;;;;10314666;28;20050;-88
2022/04/11 05:37:57;;;;;;;4.38;2.67;;;2.30;99.90;;;;;;10332162;28;20063;-88
2022/04/11 05:42:59;;;;;;;7.15;2.20;;;2.30;99.90;;;;;;10298433;28;20030;-89
2022/04/11 05:48:01;;;;;;;7.72;2.72;;;2.40;99.90;;;;;;10326432;28;20399;-88
2022/04/11 05:53:03;;;;;;;7.00;2.33;;;2.40;99.90;;;;;;10304766;28;20050;-88
2022/04/11 05:58:05;;;;;;;5.65;2.72;;;2.50;99.90;;;;;;10331491;28;20050;-88
2022/04/11 06:03:07;;;;;;;4.13;3.72;;;2.60;99.90;;;;;;10009562;28;20238;-89
2022/04/11 06:08:09;;;;;;;5.03;3.45;;;2.70;99.90;;;;;;10042792;28;20085;-87
2022/04/11 06:13:11;;;;;;;6.90;3.28;;;2.80;99.90;;;;;;10337686;28;20065;-88
2022/04/11 06:18:16;;;;;;;5.35;2.75;;;3.00;99.90;;;;;;10333234;28;20073;-87
2022/04/11 06:23:18;;;;;;;8.60;2.95;;;3.20;99.90;;;;;;10332511;28;20042;-88
2022/04/11 06:28:20;;;;;;;5.43;2.72;;;3.30;99.90;;;;;;10307201;28;20042;-88
2022/04/11 06:33:28;;;;;;;8.05;2.63;;;3.40;99.90;;;;;;10309105;28;20038;-88
2022/04/11 06:38:30;;;;;;;4.15;3.28;;;3.60;99.90;;;;;;10320292;28;20042;-88
2022/04/11 06:43:31;;;;;;;5.22;2.63;;;3.80;99.90;;;;;;10315974;28;20054;-88
2022/04/11 06:48:33;;;;;;;6.63;2.97;;;3.90;99.90;;;;;;10312505;28;20064;-88
2022/04/11 06:53:35;;;;;;;4.85;2.75;;;4.10;99.90;;;;;;10325623;28;20400;-88
2022/04/11 06:58:37;;;;;;;4.63;2.95;;;4.30;99.90;;;;;;10330771;28;20054;-88
2022/04/11 07:03:38;;;;;;;6.53;3.08;;;4.50;99.90;;;;;;10309396;28;20152;-89
2022/04/11 07:08:40;;;;;;;9.30;3.35;;;4.70;99.90;;;;;;10322067;28;20054;-88
2022/04/11 07:13:42;;;;;;;4.78;3.15;;;4.90;99.90;;;;;;10324627;28;20056;-86
2022/04/11 07:18:44;;;;;;;6.18;2.95;;;5.00;99.90;;;;;;10314779;28;20384;-86
2022/04/11 07:23:46;;;;;;;4.90;2.88;;;5.30;99.90;;;;;;10332223;28;20119;-86
2022/04/11 07:28:48;;;;;;;3.92;2.25;;;5.50;99.90;;;;;;10317368;28;20423;-86
2022/04/11 07:33:49;;;;;;;5.55;3.08;;;5.70;99.90;;;;;;10318439;28;20050;-87
2022/04/11 07:38:51;;;;;;;9.73;2.70;;;5.80;99.90;;;;;;10330246;28;20053;-87
2022/04/11 07:43:54;;;;;;;4.95;2.35;;;6.00;99.90;;;;;;10307589;28;20057;-87
2022/04/11 07:48:56;;;;;;;4.45;2.17;;;6.10;99.90;;;;;;10329273;28;20041;-87
2022/04/11 07:53:58;;;;;;;7.65;2.38;;;6.20;99.90;;;;;;10333422;28;20669;-87
2022/04/11 07:58:59;;;;;;;6.90;3.00;;;6.30;99.90;;;;;;10339935;28;20085;-87
2022/04/11 08:04:01;;;;;;;3.78;2.05;;;6.60;99.30;;;;;;10314934;28;20047;-87
2022/04/11 08:09:03;;;;;;;3.67;2.03;;;6.90;97.50;;;;;;10311968;28;20078;-88
2022/04/11 08:14:05;;;;;;;3.97;2.00;;;7.00;96.90;;;;;;10327890;28;20050;-87
2022/04/11 08:19:07;;;;;;;3.80;2.03;;;7.20;95.70;;;;;;10334372;28;20065;-87
2022/04/11 08:24:09;;;;;;;3.03;1.65;;;7.50;94.00;;;;;;10329108;28;20069;-88
2022/04/11 08:29:11;;;;;;;2.47;1.48;;;7.70;90.20;;;;;;10322638;28;20050;-88
2022/04/11 08:34:13;;;;;;;5.38;1.88;;;7.90;90.00;;;;;;10325426;28;20068;-88
2022/04/11 08:39:16;;;;;;;2.92;1.85;;;8.10;89.00;;;;;;10331378;28;20046;-87
2022/04/11 08:44:19;;;;;;;2.75;1.80;;;8.30;86.20;;;;;;10331024;28;20057;-87
2022/04/11 08:49:21;;;;;;;5.40;1.80;;;8.40;87.90;;;;;;10330914;28;20065;-87
2022/04/11 08:54:23;;;;;;;3.33;1.45;;;8.60;83.80;;;;;;10332395;28;20051;-86
2022/04/11 08:59:24;;;;;;;2.25;1.27;;;9.00;83.70;;;;;;10315124;28;20400;-89
2022/04/11 09:04:26;;;;;;;7.82;1.92;;;9.30;81.70;;;;;;10335897;28;20080;-87
2022/04/11 09:09:38;;;;;;;8.55;1.40;;;9.50;76.40;;;;;;10316683;28;20048;-87
2022/04/11 09:14:42;;;;;;;5.25;1.10;;;9.60;73.40;;;;;;10339919;28;20137;-86
2022/04/11 09:19:43;;;;;;;2.65;0.77;;;10.10;69.70;;;;;;10316476;28;20759;-87
2022/04/11 09:25:20;;;;;;;2.50;0.95;;;10.40;67.40;;;;;;10319117;28;20054;-87
2022/04/11 09:30:27;;;;;;;4.28;1.00;;;10.70;67.40;;;;;;10312409;28;20057;-86
2022/04/11 09:35:54;;;;;;;9.32;0.82;;;10.90;65.20;;;;;;10330233;28;20113;-87
2022/04/11 09:40:56;;;;;;;1.75;0.60;;;11.20;62.80;;;;;;10298871;28;20054;-87
2022/04/11 09:46:01;;;;;;;4.32;0.82;;;11.40;60.60;;;;;;10316803;28;20101;-87
2022/04/11 09:51:10;;;;;;;1.10;0.57;;;11.60;61.00;;;;;;10316078;28;20056;-87
2022/04/11 09:56:13;;;;;;;1.40;0.40;;;11.70;56.90;;;;;;10316516;28;20085;-88
2022/04/11 10:01:15;;;;;;;2.20;0.40;;;11.90;58.10;;;;;;10320310;28;20177;-88
2022/04/11 10:06:17;;;;;;;1.02;0.40;;;12.10;56.50;;;;;;10315471;28;20050;-88
2022/04/11 10:11:19;;;;;;;0.50;0.20;;;12.20;53.40;;;;;;10315584;28;20046;-88
2022/04/11 10:16:23;;;;;;;1.75;0.50;;;12.40;51.60;;;;;;10309413;28;20069;-87
2022/04/11 10:21:26;;;;;;;1.45;0.40;;;12.60;53.50;;;;;;10318731;28;20558;-88
2022/04/11 10:26:52;;;;;;;1.17;0.60;;;12.70;52.10;;;;;;10337293;28;20177;-88
2022/04/11 10:32:09;;;;;;;1.60;0.50;;;13.00;52.40;;;;;;10331000;28;20050;-88
2022/04/11 10:37:11;;;;;;;0.60;0.40;;;13.30;51.40;;;;;;10343497;28;20054;-88
2022/04/11 10:42:22;;;;;;;1.75;0.40;;;13.00;51.50;;;;;;10316715;28;20092;-87
2022/04/11 10:47:30;;;;;;;0.73;0.47;;;13.30;50.50;;;;;;10312133;28;20058;-87
2022/04/11 10:52:32;;;;;;;1.13;0.50;;;13.60;49.80;;;;;;10320046;28;20132;-87
2022/04/11 10:57:39;;;;;;;2.00;0.30;;;13.70;50.20;;;;;;10325424;28;20045;-87
2022/04/11 11:02:56;;;;;;;;;;;14.10;49.20;;;;;;10278908;28;20108;-86
2022/04/11 11:08:13;;;;;;;1.38;0.30;;;14.40;47.50;;;;;;10331496;28;19972;-87
2022/04/11 11:13:40;;;;;;;1.95;0.38;;;14.30;46.30;;;;;;10297540;28;20113;-86
2022/04/11 11:18:49;;;;;;;2.38;0.40;;;14.40;45.90;;;;;;10297254;28;20046;-86
2022/04/11 11:24:12;;;;;;;1.70;0.40;;;14.70;45.50;;;;;;10327118;28;20053;-86
2022/04/11 11:29:24;;;;;;;1.70;0.40;;;14.90;45.30;;;;;;10301539;28;20070;-86
2022/04/11 11:34:28;;;;;;;3.75;0.38;;;14.90;45.60;;;;;;10309686;28;20053;-86
2022/04/11 11:39:32;;;;;;;0.63;0.40;;;15.00;45.80;;;;;;10300657;28;20046;-86
2022/04/11 11:44:48;;;;;;;1.27;0.40;;;14.70;45.30;;;;;;10297869;28;20049;-86
2022/04/11 11:49:49;;;;;;;1.08;0.30;;;14.50;43.60;;;;;;10294727;28;20051;-86
2022/04/11 11:54:53;;;;;;;3.10;0.35;;;15.00;44.00;;;;;;10324206;28;20046;-86
2022/04/11 12:00:03;;;;;;;0.90;0.30;;;15.40;43.80;;;;;;10322982;28;20054;-86
2022/04/11 12:05:28;;;;;;;0.75;0.43;;;15.10;44.10;;;;;;10316769;28;20097;-87
2022/04/11 12:10:31;;;;;;;0.40;0.22;;;15.20;42.30;;;;;;10329646;28;20092;-87
2022/04/11 12:15:34;;;;;;;1.83;0.40;;;15.50;43.00;;;;;;10335891;28;20074;-88
2022/04/11 12:20:37;;;;;;;1.73;0.40;;;15.80;43.70;;;;;;10344644;28;20042;-88
2022/04/11 12:25:50;;;;;;;0.65;0.25;;;15.80;42.80;;;;;;10346425;28;20480;-87
2022/04/11 12:31:07;;;;;;;1.55;0.40;;;16.10;41.80;;;;;;10330448;28;20042;-88
2022/04/11 12:36:11;;;;;;;1.65;0.30;;;15.80;40.70;;;;;;10331680;28;20050;-88
2022/04/11 12:41:33;;;;;;;1.25;0.35;;;16.30;42.60;;;;;;10348048;28;20539;-87
2022/04/11 12:46:45;;;;;;;1.73;0.30;;;16.40;40.00;;;;;;10318950;28;20064;-87
2022/04/11 12:52:02;;;;;;;1.70;0.30;;;16.60;40.70;;;;;;10318960;28;20072;-88
2022/04/11 12:57:06;;;;;;;3.35;0.40;;;16.90;39.30;;;;;;10330326;28;20070;-88
2022/04/11 13:02:11;;;;;;;0.60;0.40;;;17.00;40.70;;;;;;10328544;28;20362;-87
2022/04/11 13:07:13;;;;;;;1.23;0.30;;;17.00;41.40;;;;;;10333588;28;20046;-87
2022/04/11 13:12:19;;;;;;;2.35;0.30;;;17.50;41.00;;;;;;10318697;28;20412;-87
2022/04/11 13:23:03;;;;;;;1.60;0.30;;;17.50;39.00;;;;;;10327256;28;20045;-88
2022/04/11 13:28:05;;;;;;;1.27;0.30;;;17.50;38.60;;;;;;10328922;28;20381;-88
2022/04/11 13:33:06;;;;;;;0.68;0.30;;;17.80;38.50;;;;;;10319418;28;20058;-88
2022/04/11 13:38:09;;;;;;;3.15;0.30;;;18.10;39.00;;;;;;10328811;28;20058;-88
2022/04/11 13:43:10;;;;;;;1.13;0.40;;;18.00;39.60;;;;;;10306766;28;20056;-88
2022/04/11 13:48:15;;;;;;;0.50;0.30;;;18.20;40.60;;;;;;10326962;28;20415;-88
2022/04/11 13:53:17;;;;;;;3.50;0.50;;;18.50;41.00;;;;;;10313205;28;20526;-88
2022/04/11 13:58:19;;;;;;;1.42;0.47;;;18.50;40.80;;;;;;10299319;28;20137;-88
2022/04/11 14:03:20;;;;;;;0.45;0.28;;;18.60;39.00;;;;;;10313447;28;20052;-88
2022/04/11 14:08:24;;;;;;;0.90;0.38;;;19.10;39.10;;;;;;10317076;28;20065;-88
2022/04/11 14:13:26;;;;;;;3.13;0.50;;;19.00;39.40;;;;;;10309768;28;20073;-88
2022/04/11 14:18:28;;;;;;;1.23;0.40;;;18.70;37.50;;;;;;10322179;28;20070;-88
2022/04/11 14:23:31;;;;;;;1.77;0.50;;;18.50;40.00;;;;;;10335060;28;20552;-88
2022/04/11 14:28:34;;;;;;;2.58;0.40;;;18.90;39.60;;;;;;10323995;28;20049;-88
2022/04/11 14:33:36;;;;;;;1.05;0.30;;;19.10;39.60;;;;;;10315665;28;20047;-88
2022/04/11 14:38:42;;;;;;;0.70;0.60;;;19.00;39.30;;;;;;10324031;28;20141;-89
2022/04/11 14:43:43;;;;;;;3.92;0.45;;;18.70;36.00;;;;;;10324406;28;20441;-88
2022/04/11 14:48:45;;;;;;;2.13;0.68;;;19.10;38.30;;;;;;10320476;28;20050;-88
2022/04/11 14:53:49;;;;;;;1.42;0.40;;;19.20;38.40;;;;;;10300685;28;20050;-88
2022/04/11 14:58:50;;;;;;;1.20;0.40;;;19.20;37.20;;;;;;10331379;28;20074;-88
2022/04/11 15:03:52;;;;;;;2.45;0.80;;;19.30;37.80;;;;;;10315889;28;20124;-88
2022/04/11 15:08:54;;;;;;;1.05;0.45;;;19.20;37.70;;;;;;10305864;28;20050;-88
2022/04/11 15:13:57;;;;;;;2.17;0.40;;;19.10;39.50;;;;;;10306717;28;20077;-89
2022/04/11 15:18:59;;;;;;;1.58;0.50;;;19.00;39.50;;;;;;10308910;28;20038;-88
2022/04/11 15:24:03;;;;;;;4.40;0.60;;;19.00;40.50;;;;;;10315245;28;22288;-88
2022/04/11 15:29:05;;;;;;;2.13;0.40;;;18.60;39.80;;;;;;10328008;28;20058;-88
2022/04/11 15:34:09;;;;;;;1.23;0.52;;;18.90;41.30;;;;;;10317730;28;20376;-88
2022/04/11 15:39:17;;;;;;;1.33;0.50;;;18.90;39.30;;;;;;10316528;28;20058;-88
2022/04/11 15:44:23;;;;;;;1.98;0.70;;;18.80;40.40;;;;;;10330700;28;20068;-88
2022/04/11 15:49:25;;;;;;;1.35;0.43;;;18.80;40.70;;;;;;10303827;28;20046;-88
2022/04/11 15:54:27;;;;;;;1.35;0.50;;;18.60;41.00;;;;;;10292189;28;20042;-90
2022/04/11 15:59:30;;;;;;;3.03;0.60;;;18.70;41.20;;;;;;10313198;28;20063;-90
2022/04/11 16:04:34;;;;;;;2.30;0.60;;;18.60;41.80;;;;;;10314013;28;20064;-90
2022/04/11 16:09:37;;;;;;;3.15;0.70;;;18.40;42.80;;;;;;10315557;28;20077;-90
2022/04/11 16:14:39;;;;;;;4.05;0.70;;;18.20;41.20;;;;;;10340859;28;20042;-89
2022/04/11 16:19:40;;;;;;;2.03;0.68;;;18.30;42.00;;;;;;10323443;28;20047;-89
2022/04/11 16:24:42;;;;;;;1.77;0.63;;;18.20;43.60;;;;;;10318013;28;20073;-89
2022/04/11 16:29:49;;;;;;;2.13;0.52;;;18.00;42.60;;;;;;10305066;28;20066;-88
2022/04/11 16:34:51;;;;;;;2.25;0.40;;;17.90;42.70;;;;;;10318048;28;20485;-88
2022/04/11 16:40:12;;;;;;;0.88;0.45;;;17.70;42.80;;;;;;10336506;28;20062;-88
2022/04/11 16:45:15;;;;;;;2.25;0.45;;;17.50;43.80;;;;;;10327955;28;20054;-89
2022/04/11 16:50:17;;;;;;;1.58;0.60;;;17.60;44.10;;;;;;10320401;28;20057;-89
2022/04/11 16:55:18;;;;;;;3.28;0.52;;;17.50;43.70;;;;;;10330280;28;20505;-89
2022/04/11 17:00:20;;;;;;;1.95;0.90;;;17.20;45.00;;;;;;10332968;28;20042;-88
2022/04/11 17:05:22;;;;;;;1.58;0.73;;;17.10;45.30;;;;;;10332392;28;20084;-88
2022/04/11 17:10:24;;;;;;;0.90;0.40;;;17.00;45.00;;;;;;10325857;28;20072;-88
2022/04/11 17:20:48;;;;;;;2.95;0.50;;;16.80;45.40;;;;;;10334273;28;20062;-88
2022/04/11 17:25:50;;;;;;;3.30;0.70;;;16.60;46.10;;;;;;10351350;28;20050;-89
2022/04/11 17:30:53;;;;;;;1.83;0.88;;;16.40;46.80;;;;;;10333878;28;20076;-88
2022/04/11 17:35:55;;;;;;;2.13;0.75;;;16.20;47.30;;;;;;10321327;28;20057;-89
2022/04/11 17:40:57;;;;;;;1.27;0.70;;;16.10;47.60;;;;;;10307242;28;20022;-89
2022/04/11 17:46:02;;;;;;;1.77;0.80;;;15.90;48.10;;;;;;10322000;28;20053;-88
2022/04/11 17:51:06;;;;;;;1.85;0.98;;;15.60;48.50;;;;;;10323158;28;20057;-89
2022/04/11 17:56:09;;;;;;;2.15;0.60;;;15.40;49.40;;;;;;10327798;28;20050;-88
2022/04/11 18:01:10;;;;;;;4.57;0.80;;;15.20;49.40;;;;;;10338070;28;20061;-88
2022/04/11 18:06:13;;;;;;;2.63;0.90;;;15.00;50.60;;;;;;10330668;28;20057;-87
2022/04/11 18:11:15;;;;;;;5.03;1.42;;;14.80;51.20;;;;;;10322314;28;20306;-89
2022/04/11 18:16:18;;;;;;;3.50;0.80;;;14.50;51.90;;;;;;10321216;28;20047;-87
2022/04/11 18:21:19;;;;;;;1.75;0.68;;;14.30;52.50;;;;;;10323731;28;20050;-87
2022/04/11 18:26:21;;;;;;;4.90;1.27;;;14.10;54.30;;;;;;10330988;28;20034;-86
2022/04/11 18:31:32;;;;;;;5.78;1.50;;;13.90;55.20;;;;;;10312055;28;20683;-85
2022/04/11 18:36:35;;;;;;;8.50;3.97;;;13.70;56.70;;;;;;10314003;28;20519;-88
2022/04/11 18:41:37;;;;;;;17.05;6.95;;;13.40;57.40;;;;;;10315041;28;20508;-88
2022/04/11 18:46:39;;;;;;;18.80;7.82;;;13.20;59.50;;;;;;10308639;28;20042;-88
2022/04/11 18:51:43;;;;;;;12.15;5.90;;;12.90;60.60;;;;;;10321734;28;20554;-87
2022/04/11 18:56:45;;;;;;;7.68;2.55;;;12.70;61.50;;;;;;10332677;28;20069;-87
2022/04/11 19:01:47;;;;;;;4.03;2.20;;;12.50;64.00;;;;;;10327901;28;20734;-87
2022/04/11 19:06:51;;;;;;;4.97;2.53;;;12.30;65.40;;;;;;10327161;28;20145;-87
2022/04/11 19:11:53;;;;;;;6.38;2.53;;;12.10;65.60;;;;;;10320414;28;20835;-87
2022/04/11 19:16:55;;;;;;;5.38;2.35;;;11.90;66.10;;;;;;10297255;28;20045;-87
2022/04/11 19:21:57;;;;;;;7.15;3.13;;;11.70;69.80;;;;;;10330913;28;20136;-87
2022/04/11 19:27:19;;;;;;;4.80;3.15;;;11.60;70.60;;;;;;10292463;28;20061;-87
2022/04/11 19:32:21;;;;;;;6.63;3.70;;;11.30;69.90;;;;;;10317079;28;20046;-87
2022/04/11 19:37:22;;;;;;;3.50;1.52;;;11.20;71.60;;;;;;10328743;28;20475;-87
2022/04/11 19:42:26;;;;;;;3.50;1.50;;;11.00;71.10;;;;;;10319379;28;20043;-87
2022/04/11 19:52:51;;;;;;;3.92;1.45;;;10.60;74.40;;;;;;10318086;28;20065;-87
2022/04/11 19:57:53;;;;;;;4.15;1.02;;;10.50;74.50;;;;;;10306923;28;20065;-87
2022/04/11 20:02:55;;;;;;;10.73;1.45;;;10.30;75.10;;;;;;10314295;28;20065;-87
2022/04/11 20:07:57;;;;;;;4.78;1.52;;;10.20;76.20;;;;;;10315088;28;20038;-87
2022/04/11 20:12:59;;;;;;;5.40;1.98;;;9.90;76.80;;;;;;10327561;28;20050;-87
2022/04/11 20:18:01;;;;;;;3.35;1.75;;;9.80;78.80;;;;;;10319515;28;20042;-87
2022/04/11 20:23:03;;;;;;;5.20;2.35;;;8.70;78.50;;;;;;10320754;28;20042;-87
2022/04/11 20:28:04;;;;;;;6.82;2.85;;;9.50;79.50;;;;;;10332592;28;20054;-88
2022/04/11 20:33:08;;;;;;;5.55;2.33;;;9.40;81.80;;;;;;10323977;28;20065;-88
2022/04/11 20:38:10;;;;;;;4.78;2.33;;;9.30;83.90;;;;;;10337021;28;20133;-87
2022/04/11 20:43:14;;;;;;;5.47;2.17;;;9.20;83.50;;;;;;10333265;28;20500;-89
2022/04/11 20:48:21;;;;;;;5.22;1.73;;;9.10;84.40;;;;;;10332445;28;20074;-86
2022/04/11 20:53:23;;;;;;;3.85;1.75;;;8.90;85.80;;;;;;10331504;28;20043;-86
2022/04/11 20:58:25;;;;;;;4.65;1.42;;;8.70;86.20;;;;;;10334872;28;20061;-86
2022/04/11 21:03:27;;;;;;;4.28;1.92;;;8.70;87.60;;;;;;10304976;28;20743;-86
2022/04/11 21:08:28;;;;;;;6.97;1.88;;;8.60;87.30;;;;;;10314983;28;20125;-88
2022/04/11 21:13:32;;;;;;;6.57;2.08;;;8.60;88.40;;;;;;10340182;28;20073;-88
2022/04/11 21:18:34;;;;;;;3.25;1.50;;;8.40;88.10;;;;;;10342798;28;20045;-87
2022/04/11 21:23:35;;;;;;;4.22;1.67;;;8.30;89.90;;;;;;10333296;28;20054;-87
2022/04/11 21:28:39;;;;;;;3.88;1.73;;;8.30;90.00;;;;;;10318262;28;20061;-88
2022/04/11 21:33:41;;;;;;;3.45;1.50;;;8.20;90.40;;;;;;10309935;28;20053;-87
2022/04/11 21:38:43;;;;;;;3.13;1.38;;;8.00;90.00;;;;;;10307772;28;20081;-87
2022/04/11 21:43:44;;;;;;;2.97;0.93;;;8.00;90.70;;;;;;10324806;28;20523;-87
2022/04/11 21:48:48;;;;;;;4.05;1.55;;;8.00;90.00;;;;;;10323464;28;20050;-87
2022/04/11 21:53:49;;;;;;;2.63;1.40;;;7.90;90.70;;;;;;10337181;28;20039;-88
2022/04/11 21:58:51;;;;;;;12.02;5.45;;;7.90;91.70;;;;;;10323935;28;20045;-88
2022/04/11 22:03:53;;;;;;;2.78;1.45;;;7.80;92.50;;;;;;10328037;28;20482;-88
2022/04/11 22:08:55;;;;;;;6.70;1.40;;;7.70;93.00;;;;;;10311649;28;20045;-88
2022/04/11 22:13:57;;;;;;;6.00;1.50;;;7.60;93.60;;;;;;10329463;28;20149;-87
2022/04/11 22:18:59;;;;;;;2.17;0.93;;;7.50;94.30;;;;;;10308372;28;20135;-88
2022/04/11 22:24:01;;;;;;;3.97;1.08;;;7.40;94.80;;;;;;10324441;28;20056;-88
2022/04/11 22:29:03;;;;;;;2.42;1.17;;;7.40;95.20;;;;;;10311656;28;20513;-88
2022/04/11 22:34:05;;;;;;;3.90;1.50;;;7.40;96.40;;;;;;10326828;28;20483;-88
2022/04/11 22:39:07;;;;;;;2.13;1.05;;;7.30;95.90;;;;;;10314651;28;20175;-88
2022/04/11 22:44:09;;;;;;;2.92;1.40;;;7.20;96.00;;;;;;10294455;28;20153;-88
2022/04/11 22:49:10;;;;;;;4.10;2.45;;;7.20;96.10;;;;;;10336301;28;20068;-88
2022/04/11 22:54:12;;;;;;;2.30;1.17;;;7.10;97.10;;;;;;10320691;28;20054;-88
2022/04/11 22:59:14;;;;;;;3.08;1.33;;;7.10;96.80;;;;;;10312473;28;20404;-88
2022/04/11 23:04:16;;;;;;;3.75;1.75;;;7.00;96.60;;;;;;10335037;28;20056;-88
2022/04/11 23:09:18;;;;;;;2.90;1.20;;;7.00;96.40;;;;;;10313720;28;20468;-87
2022/04/11 23:14:20;;;;;;;3.65;1.10;;;6.90;96.80;;;;;;10321538;28;20047;-87
2022/04/11 23:19:23;;;;;;;2.90;1.50;;;6.90;96.90;;;;;;10325740;28;20481;-88
2022/04/11 23:24:25;;;;;;;3.70;1.15;;;6.80;97.00;;;;;;10331779;28;20042;-87
2022/04/11 23:29:27;;;;;;;3.20;1.17;;;6.80;97.20;;;;;;10327336;28;20568;-88
2022/04/11 23:34:29;;;;;;;4.70;1.45;;;6.70;97.70;;;;;;10316579;28;20042;-88
2022/04/11 23:39:31;;;;;;;3.22;0.98;;;6.70;97.50;;;;;;10316700;28;20053;-88
2022/04/11 23:44:32;;;;;;;1.67;0.77;;;6.70;97.60;;;;;;10328875;28;20057;-88
2022/04/11 23:49:34;;;;;;;2.47;0.75;;;6.60;98.20;;;;;;10324357;28;20126;-88
2022/04/11 23:54:36;;;;;;;3.90;0.93;;;6.50;98.40;;;;;;10325727;28;20050;-87
2022/04/11 23:59:38;;;;;;;2.92;0.70;;;6.50;98.30;;;;;;10329170;28;20417;-88
